Casa Branca Municipal Airport

SDKB · São Paulo, 巴西

使用的METAR站距离机场37 km。
罗盘
风向 的 Casa Branca Municipal Airport 11/29
风: 2 kt, 1 beaufort


2 kt
改变
0 ft 1.000 2.000 3.000 4.000 5.000
CAVOK
METAR SBYS 172300Z VRB02KT CAVOK 20/16 Q1018

METAR Casa Branca Municipal Airport - SDKB

Casa Branca Municipal Airport是,巴西中的小机场。 该机场位于纬度-21,78815和经度-47,05582。 该机场有一条跑道: 11/29. 本场的ICAO机场代码为SDKB。 机场在Brasilia FIR中。

该航空气象观测是针对Campo Fontenelle在2024年5月17日 20:00, 当地时间进行的。

机场观察

可变方向的风很小或没有风。

天气为CAVOK。这意味着在5.000 ft或MSA(最低安全高度)以下(以较高者为准)以下没有云。这也意味着没有观测到积雨云或高耸的积云,可见度为10 km 或者更多或更高。此外,不会有雾,降雨或其他重要天气。

温度和风寒是20 °C。 露点为16 °C,相对湿度为78%。 海平面上的气压为1018 hPa (QNH)。

白天

今天,太阳从06:33升起,在17:35降落。 这适用于Casa Branca Municipal Airport,世界夏令时可能有所不同。 当地时间与世界标准时间之间的时差为-3 小时。 夏令时目前正在进行中。

公司介绍

在这个机场,你可以找到跳伞中心。 本场上唯一已知的公司是Azul do Vento Páraquedismo。

体会

到Vliegles.nl去找飞行课程,跳伞和其他飞行体验。 浏览页面,了解Casa Branca Municipal Airport附近所有可用的活动。 你也可以使用搜索功能来寻找你所在地附近的特定飞行课程、跳伞或其他飞行体验。

跑道

Id 标题 侧风 逆风 侧风 %
11/29 087°-267° 2 kt 100 %

逆风成分最大的方向会被突出显示,并用于横风计算。 这并不一定意味着这个方向在使用。

温度 & 天气

温度 20 °C
露点 16 °C
相对湿度 78%
Kp-index 0 (0-9)

白天

日出
06:34 (9:23)
中午
12:05
日落
17:36

小工具

你想在你的网站上有一个关于Casa Branca Municipal Airport的当前航空天气(METAR)的小部件吗?

显示HTML代码
报告变更